Time;durP1;ratioP1;P1;durP2;ratioP2;P2;SDS_P1;SDS_P2;PMS_P1;PMS_P2;Temp;Humidity;BMP_temperature;BMP_pressure;BME280_temperature;BME280_humidity;BME280_pressure;Samples;Min_cycle;Max_cycle;Signal;HPM_P1;HPM_P2
2023/06/01 00:01:53;;;;;;;9.00;5.30;;;16.90;99.90;;;;;;5058934;28;20060;-76
2023/06/01 00:04:19;;;;;;;10.35;4.88;;;16.90;99.90;;;;;;5064675;28;20044;-76
2023/06/01 00:06:44;;;;;;;8.65;4.88;;;16.90;99.90;;;;;;5057172;28;20386;-77
2023/06/01 00:09:10;;;;;;;10.82;5.72;;;16.90;99.90;;;;;;5059859;28;20037;-76
2023/06/01 00:11:36;;;;;;;9.30;5.22;;;16.80;99.90;;;;;;5064456;28;20117;-76
2023/06/01 00:14:02;;;;;;;8.43;4.68;;;16.70;99.90;;;;;;5053310;28;20048;-77
2023/06/01 00:16:31;;;;;;;13.57;4.65;;;16.70;99.90;;;;;;5055054;28;20045;-77
2023/06/01 00:19:00;;;;;;;8.43;4.80;;;16.70;99.90;;;;;;5059667;28;20029;-76
2023/06/01 00:21:26;;;;;;;10.65;5.10;;;16.70;99.90;;;;;;5054646;28;20102;-77
2023/06/01 00:23:52;;;;;;;7.85;4.85;;;16.70;99.90;;;;;;5060106;28;20033;-76
2023/06/01 00:26:18;;;;;;;8.02;5.28;;;16.60;99.90;;;;;;5052118;28;20044;-76
2023/06/01 00:28:43;;;;;;;10.55;4.82;;;16.70;99.90;;;;;;5053259;28;20102;-76
2023/06/01 00:31:09;;;;;;;9.82;5.10;;;16.60;99.90;;;;;;5054452;28;20033;-76
2023/06/01 00:33:34;;;;;;;8.38;4.47;;;16.60;99.90;;;;;;5056297;28;20071;-76
2023/06/01 00:36:00;;;;;;;8.57;5.10;;;16.70;99.90;;;;;;5052724;28;20025;-76
2023/06/01 00:38:26;;;;;;;10.55;4.90;;;16.70;99.90;;;;;;5055523;28;20016;-76
2023/06/01 00:40:51;;;;;;;8.93;4.97;;;16.60;99.90;;;;;;5054092;28;20021;-76
2023/06/01 00:43:18;;;;;;;12.10;5.05;;;16.70;99.90;;;;;;5054664;28;20032;-76
2023/06/01 00:45:44;;;;;;;8.57;4.93;;;16.60;99.90;;;;;;5055078;28;20032;-77
2023/06/01 00:48:14;;;;;;;9.35;4.72;;;16.60;99.90;;;;;;5056705;28;20090;-76
2023/06/01 00:50:40;;;;;;;11.25;5.18;;;16.60;99.90;;;;;;5059197;28;20035;-76
2023/06/01 00:53:14;;;;;;;7.57;4.70;;;16.60;99.90;;;;;;5058034;28;20029;-76
2023/06/01 00:55:40;;;;;;;7.13;5.03;;;16.60;99.90;;;;;;5055970;28;20151;-76
2023/06/01 00:58:07;;;;;;;7.97;4.20;;;16.70;99.90;;;;;;5054398;28;20052;-76
2023/06/01 01:00:33;;;;;;;9.30;4.82;;;16.80;99.90;;;;;;5055120;28;20033;-76
2023/06/01 01:03:07;;;;;;;9.50;4.93;;;16.80;99.90;;;;;;5058502;28;20089;-77
2023/06/01 01:05:33;;;;;;;8.90;4.45;;;16.70;99.90;;;;;;5061277;28;20025;-76
2023/06/01 01:08:07;;;;;;;10.13;5.00;;;16.50;99.90;;;;;;5055652;28;20136;-76
2023/06/01 01:10:36;;;;;;;;;;;16.40;99.90;;;;;;5055936;28;20087;-76
2023/06/01 01:13:25;;;;;;;12.27;5.30;;;16.30;99.90;;;;;;5059391;28;20351;-76
2023/06/01 01:15:53;;;;;;;9.57;4.93;;;16.20;99.90;;;;;;5057023;28;20510;-76
2023/06/01 01:18:45;;;;;;;8.27;4.68;;;16.20;99.90;;;;;;5058426;28;20033;-76
2023/06/01 01:21:27;;;;;;;9.75;5.32;;;16.20;99.90;;;;;;5059524;28;20024;-76
2023/06/01 01:24:06;;;;;;;12.50;5.70;;;16.20;99.90;;;;;;5053058;28;20024;-77
2023/06/01 01:26:47;;;;;;;7.72;4.43;;;16.40;99.90;;;;;;5052364;28;20036;-76
2023/06/01 01:29:15;;;;;;;7.70;4.28;;;16.50;99.90;;;;;;5057334;28;20659;-76
2023/06/01 01:31:42;;;;;;;9.93;4.68;;;16.50;99.90;;;;;;5053238;28;20043;-76
2023/06/01 01:34:09;;;;;;;8.98;4.70;;;16.50;99.90;;;;;;5058063;28;20033;-76
2023/06/01 01:36:35;;;;;;;7.72;4.50;;;16.60;99.90;;;;;;5057803;28;20029;-76
2023/06/01 01:39:02;;;;;;;9.35;4.18;;;16.60;99.90;;;;;;5053254;28;20036;-76
2023/06/01 01:41:28;;;;;;;8.43;5.00;;;16.60;99.90;;;;;;5053190;28;20036;-76
2023/06/01 01:43:54;;;;;;;9.63;4.55;;;16.60;99.90;;;;;;5053106;28;20033;-76
2023/06/01 01:46:26;;;;;;;8.75;4.88;;;16.60;99.90;;;;;;5054581;28;20035;-76
2023/06/01 01:49:06;;;;;;;7.70;4.85;;;16.60;99.90;;;;;;5061915;28;20384;-76
2023/06/01 01:51:36;;;;;;;10.77;5.72;;;16.50;99.90;;;;;;5056320;28;20036;-76
2023/06/01 01:54:07;;;;;;;13.23;4.60;;;16.40;99.90;;;;;;5051697;28;20029;-76
2023/06/01 01:56:35;;;;;;;8.88;4.72;;;16.40;99.90;;;;;;5060802;28;20687;-76
2023/06/01 01:59:02;;;;;;;11.73;5.82;;;16.50;99.90;;;;;;5060026;28;20020;-76
2023/06/01 02:01:29;;;;;;;10.90;4.93;;;16.50;99.90;;;;;;5054607;28;20083;-76
2023/06/01 02:04:13;;;;;;;7.78;4.57;;;16.20;99.90;;;;;;5053283;28;20482;-76
2023/06/01 02:06:38;;;;;;;9.15;4.90;;;16.50;99.90;;;;;;5055479;28;20029;-76
2023/06/01 02:09:07;;;;;;;8.45;4.90;;;16.40;99.90;;;;;;5054067;28;20029;-76
2023/06/01 02:11:34;;;;;;;9.27;5.20;;;16.40;99.90;;;;;;5051859;28;20036;-76
2023/06/01 02:14:00;;;;;;;10.07;5.00;;;16.40;99.90;;;;;;5051744;28;20025;-76
2023/06/01 02:16:26;;;;;;;10.80;5.45;;;16.30;99.90;;;;;;5051141;28;20033;-76
2023/06/01 02:18:51;;;;;;;7.82;5.15;;;16.30;99.90;;;;;;5061309;28;20028;-76
2023/06/01 02:21:17;;;;;;;7.65;5.30;;;16.20;99.90;;;;;;5054459;28;20031;-76
2023/06/01 02:23:43;;;;;;;9.75;5.30;;;16.40;99.90;;;;;;5050630;28;20506;-76
2023/06/01 02:26:09;;;;;;;14.95;5.07;;;16.20;99.90;;;;;;5054278;28;20025;-77
2023/06/01 02:28:38;;;;;;;8.20;4.63;;;16.00;99.90;;;;;;5049538;28;20494;-76
2023/06/01 02:31:05;;;;;;;9.75;5.38;;;15.90;99.90;;;;;;5054980;28;20028;-76
2023/06/01 02:33:31;;;;;;;7.57;4.20;;;15.80;99.90;;;;;;5054053;28;20483;-76
2023/06/01 02:35:57;;;;;;;11.70;5.22;;;15.80;99.90;;;;;;5051124;28;20140;-76
2023/06/01 02:38:23;;;;;;;9.90;5.55;;;15.70;99.90;;;;;;5050950;28;20517;-76
2023/06/01 02:40:48;;;;;;;8.02;4.60;;;15.70;99.90;;;;;;5051414;28;20047;-76
2023/06/01 02:43:14;;;;;;;9.48;5.30;;;15.70;99.90;;;;;;5050897;28;20032;-76
2023/06/01 02:45:40;;;;;;;9.65;5.38;;;15.70;99.90;;;;;;5050105;28;20033;-76
2023/06/01 02:48:05;;;;;;;9.80;4.43;;;15.80;99.90;;;;;;5051320;28;20037;-76
2023/06/01 02:50:31;;;;;;;12.25;5.50;;;15.70;99.90;;;;;;5054572;28;20036;-76
2023/06/01 02:52:57;;;;;;;9.00;4.88;;;15.70;99.90;;;;;;5049137;28;20465;-76
2023/06/01 02:55:22;;;;;;;10.88;5.55;;;15.80;99.90;;;;;;5049606;28;20048;-76
2023/06/01 02:57:48;;;;;;;10.05;4.35;;;16.10;99.90;;;;;;5051719;28;20037;-76
2023/06/01 03:00:17;;;;;;;8.90;4.68;;;16.20;99.90;;;;;;5052343;28;20051;-75
2023/06/01 03:02:46;;;;;;;12.13;5.43;;;16.10;99.90;;;;;;5058725;28;20063;-75
2023/06/01 03:05:14;;;;;;;6.63;4.50;;;16.10;99.90;;;;;;5046062;28;20044;-76
2023/06/01 03:07:43;;;;;;;7.68;4.53;;;16.10;99.90;;;;;;5045783;28;20041;-75
2023/06/01 03:10:09;;;;;;;8.18;4.75;;;15.90;99.90;;;;;;5052661;28;20629;-75
2023/06/01 03:12:35;;;;;;;7.75;4.82;;;15.80;99.90;;;;;;5046796;28;20048;-76
2023/06/01 03:15:00;;;;;;;7.68;4.53;;;15.70;99.90;;;;;;5047614;28;20071;-75
2023/06/01 03:17:26;;;;;;;12.55;5.30;;;15.50;99.90;;;;;;5048363;28;20033;-74
2023/06/01 03:19:52;;;;;;;10.27;5.88;;;15.50;99.90;;;;;;5054635;28;20517;-75
2023/06/01 03:22:17;;;;;;;7.78;4.80;;;15.40;99.90;;;;;;5052211;28;20068;-75
2023/06/01 03:24:43;;;;;;;9.18;4.80;;;15.30;99.90;;;;;;5048740;28;20032;-75
2023/06/01 03:27:11;;;;;;;11.27;5.60;;;15.20;99.90;;;;;;5046427;28;20063;-75
2023/06/01 03:29:36;;;;;;;7.68;4.93;;;15.10;99.90;;;;;;5046601;28;20115;-75
2023/06/01 03:32:02;;;;;;;9.65;5.07;;;15.10;99.90;;;;;;5049233;28;20139;-75
2023/06/01 03:34:29;;;;;;;7.78;5.10;;;15.10;99.90;;;;;;5051755;28;20060;-75
2023/06/01 03:36:55;;;;;;;10.63;5.80;;;15.30;99.90;;;;;;5052120;28;20024;-75
2023/06/01 03:39:20;;;;;;;8.43;4.97;;;15.40;99.90;;;;;;5063713;28;20688;-75
2023/06/01 03:41:46;;;;;;;6.93;4.40;;;15.40;99.90;;;;;;5052067;28;20693;-75
2023/06/01 03:44:12;;;;;;;10.57;5.50;;;15.50;99.90;;;;;;5052026;28;20033;-75
2023/06/01 03:46:39;;;;;;;9.98;4.38;;;15.50;99.90;;;;;;5050450;28;20092;-75
2023/06/01 03:49:05;;;;;;;11.02;5.18;;;15.40;99.90;;;;;;5053865;28;20670;-76
2023/06/01 03:51:31;;;;;;;8.43;5.55;;;15.50;99.90;;;;;;5052458;28;20033;-75
2023/06/01 03:53:57;;;;;;;7.68;4.43;;;15.50;99.90;;;;;;5053217;28;20032;-75
2023/06/01 03:56:22;;;;;;;7.18;4.95;;;15.60;99.90;;;;;;5051115;28;20044;-75
2023/06/01 03:58:49;;;;;;;7.45;4.85;;;15.60;99.90;;;;;;5055148;28;20064;-75
2023/06/01 04:01:19;;;;;;;13.90;5.85;;;15.70;99.90;;;;;;5048968;28;20029;-75
2023/06/01 04:03:48;;;;;;;8.20;4.63;;;15.80;99.90;;;;;;5050217;28;20025;-75
2023/06/01 04:06:17;;;;;;;7.78;4.93;;;15.80;99.90;;;;;;5050252;28;20490;-75
2023/06/01 04:08:50;;;;;;;10.57;5.28;;;15.70;99.90;;;;;;5052794;28;20140;-75
2023/06/01 04:11:17;;;;;;;10.10;5.65;;;15.60;99.90;;;;;;5049826;28;20033;-76
2023/06/01 04:13:44;;;;;;;10.18;5.53;;;15.70;99.90;;;;;;5059571;28;20032;-76
2023/06/01 04:16:10;;;;;;;9.90;4.68;;;15.60;99.90;;;;;;5058913;28;20032;-75
2023/06/01 04:18:36;;;;;;;10.40;5.40;;;15.20;99.90;;;;;;5052346;28;20078;-75
2023/06/01 04:21:02;;;;;;;10.48;5.18;;;15.30;99.90;;;;;;5050336;28;20072;-75
2023/06/01 04:23:28;;;;;;;8.00;5.03;;;15.60;99.90;;;;;;5051196;28;20527;-75
2023/06/01 04:25:58;;;;;;;8.30;5.38;;;15.70;99.90;;;;;;5052923;28;20036;-75
2023/06/01 04:28:24;;;;;;;7.90;4.68;;;15.80;99.90;;;;;;5051467;28;20091;-75
2023/06/01 04:30:51;;;;;;;8.88;5.18;;;15.60;99.90;;;;;;5052939;28;20036;-75
2023/06/01 04:33:17;;;;;;;9.30;5.60;;;15.20;99.90;;;;;;5053483;28;20568;-75
2023/06/01 04:35:43;;;;;;;10.82;4.80;;;15.10;99.90;;;;;;5053308;28;20029;-75
2023/06/01 04:38:09;;;;;;;10.63;4.85;;;15.00;99.90;;;;;;5048461;28;20374;-75
2023/06/01 04:40:35;;;;;;;9.25;5.38;;;15.00;99.90;;;;;;5051054;28;20029;-75
2023/06/01 04:43:02;;;;;;;9.13;4.68;;;14.80;99.90;;;;;;5051934;28;20119;-75
2023/06/01 04:45:33;;;;;;;12.07;4.97;;;14.90;99.90;;;;;;5055928;28;20055;-75
2023/06/01 04:47:59;;;;;;;9.18;4.85;;;14.90;99.90;;;;;;5055516;28;20047;-75
2023/06/01 04:50:28;;;;;;;10.10;4.82;;;15.10;99.90;;;;;;5049292;28;20092;-75
2023/06/01 04:52:55;;;;;;;7.43;4.43;;;15.30;99.90;;;;;;5054399;28;20017;-75
2023/06/01 04:55:21;;;;;;;7.68;4.80;;;15.40;99.90;;;;;;5046268;28;20045;-76
2023/06/01 04:57:47;;;;;;;9.93;5.45;;;15.60;99.90;;;;;;5047507;28;20498;-76
2023/06/01 05:00:18;;;;;;;7.60;4.65;;;15.60;99.90;;;;;;5054789;28;20483;-76
2023/06/01 05:02:46;;;;;;;7.35;4.97;;;15.60;99.90;;;;;;5051370;28;20041;-76
2023/06/01 05:05:12;;;;;;;9.65;5.20;;;15.70;99.90;;;;;;5050887;28;20024;-76
2023/06/01 05:07:39;;;;;;;9.20;5.85;;;15.80;99.90;;;;;;5051536;28;20493;-76
2023/06/01 05:10:09;;;;;;;11.75;4.80;;;15.70;99.90;;;;;;5050713;28;20419;-76
2023/06/01 05:12:36;;;;;;;8.95;4.85;;;15.80;99.90;;;;;;5048538;28;20062;-76
2023/06/01 05:15:03;;;;;;;8.90;5.25;;;15.80;99.90;;;;;;5048645;28;20033;-76
2023/06/01 05:17:29;;;;;;;8.75;5.10;;;15.60;99.90;;;;;;5052718;28;20033;-76
2023/06/01 05:19:57;;;;;;;9.05;4.85;;;15.70;99.90;;;;;;5047774;28;20040;-76
2023/06/01 05:22:23;;;;;;;11.68;5.38;;;15.80;99.90;;;;;;5045431;28;20391;-76
2023/06/01 05:24:49;;;;;;;10.10;5.70;;;15.90;99.90;;;;;;5048467;28;20074;-76
2023/06/01 05:27:15;;;;;;;7.28;3.95;;;16.00;99.90;;;;;;5044051;28;20412;-78
2023/06/01 05:29:40;;;;;;;8.07;5.35;;;15.90;99.90;;;;;;5043893;28;20040;-78
2023/06/01 05:32:07;;;;;;;9.02;5.45;;;15.90;99.90;;;;;;5050769;28;20037;-78
2023/06/01 05:34:32;;;;;;;7.53;5.03;;;15.80;99.90;;;;;;5045097;28;20489;-78
2023/06/01 05:36:58;;;;;;;9.18;4.60;;;15.80;99.90;;;;;;5053310;28;20036;-78
2023/06/01 05:39:27;;;;;;;8.70;5.72;;;15.80;99.90;;;;;;5050591;28;20029;-77
2023/06/01 05:41:54;;;;;;;10.02;4.88;;;15.70;99.90;;;;;;5047734;28;20479;-77
2023/06/01 05:44:20;;;;;;;7.85;5.13;;;15.70;99.90;;;;;;5052713;28;20077;-77
2023/06/01 05:46:45;;;;;;;9.65;5.82;;;15.80;99.90;;;;;;5049714;28;20145;-77
2023/06/01 05:49:11;;;;;;;8.68;5.22;;;15.90;99.90;;;;;;5043545;28;20082;-78
2023/06/01 05:51:37;;;;;;;8.38;4.90;;;15.90;99.90;;;;;;5043366;28;20021;-78
2023/06/01 05:54:04;;;;;;;10.85;4.75;;;15.90;99.90;;;;;;5045619;28;20048;-77
2023/06/01 05:56:30;;;;;;;9.20;5.25;;;16.00;99.90;;;;;;5044582;28;20048;-78
2023/06/01 05:58:56;;;;;;;9.80;4.97;;;16.00;99.90;;;;;;5047005;28;20032;-78
2023/06/01 06:01:22;;;;;;;9.30;5.38;;;16.20;99.90;;;;;;5046545;28;20074;-77
2023/06/01 06:03:48;;;;;;;9.52;5.32;;;16.20;99.90;;;;;;5053074;28;20206;-79
2023/06/01 06:06:14;;;;;;;9.05;5.38;;;16.30;99.90;;;;;;5047923;28;20025;-76
2023/06/01 06:08:39;;;;;;;9.18;5.32;;;16.40;99.90;;;;;;5050211;28;20041;-78
2023/06/01 06:11:05;;;;;;;10.30;5.32;;;16.30;99.90;;;;;;5057328;28;20032;-76
2023/06/01 06:13:31;;;;;;;14.93;5.25;;;16.30;99.90;;;;;;5047809;28;20036;-75
2023/06/01 06:15:56;;;;;;;8.15;5.10;;;16.40;99.90;;;;;;5049495;28;20536;-75
2023/06/01 06:18:22;;;;;;;9.82;5.32;;;16.50;99.90;;;;;;5045643;28;20025;-75
2023/06/01 06:20:48;;;;;;;10.77;5.35;;;16.60;99.90;;;;;;5048704;28;20029;-75
2023/06/01 06:23:13;;;;;;;11.30;5.85;;;16.70;99.90;;;;;;5052140;28;20459;-75
2023/06/01 06:25:42;;;;;;;12.77;5.40;;;16.60;99.90;;;;;;5045241;28;20033;-75
2023/06/01 06:28:08;;;;;;;7.55;4.78;;;16.70;99.90;;;;;;5042646;28;20037;-75
2023/06/01 06:30:34;;;;;;;12.77;5.80;;;16.70;99.90;;;;;;5045177;28;20082;-75
2023/06/01 06:33:00;;;;;;;8.65;5.05;;;16.80;99.90;;;;;;5045925;28;23043;-76
2023/06/01 06:35:25;;;;;;;9.07;4.97;;;16.80;99.90;;;;;;5042142;28;20582;-75
2023/06/01 06:37:51;;;;;;;10.50;5.22;;;16.80;99.90;;;;;;5049211;28;20101;-76
2023/06/01 06:40:18;;;;;;;9.13;5.28;;;16.80;99.90;;;;;;5048240;28;20531;-76
2023/06/01 06:42:44;;;;;;;10.90;5.15;;;16.90;99.90;;;;;;5045687;28;20020;-75
2023/06/01 06:45:10;;;;;;;12.55;5.25;;;17.00;99.90;;;;;;5051272;28;20584;-76
2023/06/01 06:47:36;;;;;;;11.63;5.68;;;17.10;99.90;;;;;;5042536;28;20045;-76
2023/06/01 06:50:03;;;;;;;11.20;5.80;;;17.20;99.90;;;;;;5045950;28;20031;-75
2023/06/01 06:52:30;;;;;;;8.75;4.90;;;17.40;99.90;;;;;;5047112;28;20033;-76
2023/06/01 06:54:57;;;;;;;8.32;5.28;;;17.60;99.90;;;;;;5045908;28;20040;-76
2023/06/01 06:57:22;;;;;;;11.10;4.57;;;17.80;99.90;;;;;;5042924;28;20053;-76
2023/06/01 06:59:48;;;;;;;8.80;4.78;;;18.00;99.90;;;;;;5048031;28;20859;-75
2023/06/01 07:02:14;;;;;;;10.75;4.70;;;18.20;99.90;;;;;;5050251;28;20063;-80
2023/06/01 07:04:40;;;;;;;9.23;5.18;;;18.40;99.90;;;;;;5051496;28;20070;-75
2023/06/01 07:07:05;;;;;;;12.43;5.20;;;18.70;99.90;;;;;;5045369;28;20536;-76
2023/06/01 07:09:31;;;;;;;13.10;5.20;;;18.90;99.90;;;;;;5044662;28;20697;-75
2023/06/01 07:11:57;;;;;;;8.32;4.60;;;19.20;99.90;;;;;;5046221;28;20124;-75
2023/06/01 07:14:23;;;;;;;9.60;4.95;;;19.40;99.90;;;;;;5052710;28;20028;-76
2023/06/01 07:16:48;;;;;;;7.13;4.47;;;19.60;99.90;;;;;;5046976;28;20021;-75
2023/06/01 07:19:14;;;;;;;8.93;4.68;;;19.80;99.90;;;;;;5049066;28;20029;-75
2023/06/01 07:21:40;;;;;;;8.45;4.70;;;19.90;99.90;;;;;;5050241;28;20017;-75
2023/06/01 07:24:06;;;;;;;8.07;4.80;;;20.20;99.90;;;;;;5053695;28;20481;-77
2023/06/01 07:26:32;;;;;;;11.27;5.13;;;20.70;99.80;;;;;;5049132;28;20044;-77
2023/06/01 07:28:59;;;;;;;7.53;5.03;;;21.40;98.50;;;;;;5049025;28;20044;-76
2023/06/01 07:31:27;;;;;;;10.32;5.35;;;22.40;97.20;;;;;;5048975;28;20115;-76
2023/06/01 07:33:55;;;;;;;10.02;4.70;;;23.50;96.40;;;;;;5061235;28;20028;-76
2023/06/01 07:36:23;;;;;;;7.75;5.22;;;24.10;95.00;;;;;;5057962;28;20033;-76
2023/06/01 07:38:49;;;;;;;10.15;5.07;;;25.10;94.30;;;;;;5053397;28;20025;-76
2023/06/01 07:41:15;;;;;;;10.70;4.68;;;25.70;93.80;;;;;;5052258;28;20031;-77
2023/06/01 07:43:40;;;;;;;9.15;4.93;;;25.60;92.70;;;;;;5047993;28;20119;-76
2023/06/01 07:46:06;;;;;;;6.47;4.25;;;26.20;92.80;;;;;;5051228;28;20025;-77
2023/06/01 07:48:37;;;;;;;8.00;4.57;;;25.80;91.90;;;;;;5044156;28;20068;-75
2023/06/01 07:51:03;;;;;;;11.30;5.50;;;25.80;92.50;;;;;;5045520;28;20029;-75
2023/06/01 07:53:31;;;;;;;8.70;4.82;;;25.20;92.00;;;;;;5057210;28;20395;-74
2023/06/01 07:55:56;;;;;;;13.68;6.10;;;24.70;93.20;;;;;;5058269;28;20044;-74
2023/06/01 07:58:22;;;;;;;10.40;5.32;;;24.20;93.90;;;;;;5065197;28;20020;-74
2023/06/01 08:00:48;;;;;;;9.52;4.88;;;23.90;94.00;;;;;;5050675;28;20426;-74
2023/06/01 08:03:14;;;;;;;9.95;4.70;;;23.30;95.00;;;;;;5064234;28;20414;-74
2023/06/01 08:05:42;;;;;;;9.85;5.28;;;23.30;94.60;;;;;;5060599;28;20044;-74
2023/06/01 08:08:08;;;;;;;12.38;4.97;;;23.30;94.70;;;;;;5062541;28;20032;-74
2023/06/01 08:10:35;;;;;;;8.27;5.10;;;23.30;94.80;;;;;;5064086;28;20089;-75
2023/06/01 08:13:02;;;;;;;7.88;4.68;;;23.30;95.80;;;;;;5061380;28;20599;-73
2023/06/01 08:15:28;;;;;;;8.57;4.45;;;22.90;95.40;;;;;;5061249;28;20399;-74
2023/06/01 08:17:54;;;;;;;7.72;5.03;;;22.60;95.60;;;;;;5059078;28;20039;-75
2023/06/01 08:20:23;;;;;;;8.20;4.35;;;22.80;95.40;;;;;;5062502;28;20043;-75
2023/06/01 08:22:50;;;;;;;8.02;4.90;;;22.80;95.30;;;;;;5067245;28;20025;-74
2023/06/01 08:25:17;;;;;;;11.32;4.72;;;22.90;95.60;;;;;;5064958;28;20119;-74
2023/06/01 08:27:43;;;;;;;7.32;5.18;;;22.80;95.70;;;;;;5066018;28;20074;-75
2023/06/01 08:30:10;;;;;;;8.77;5.40;;;23.10;95.60;;;;;;5067744;28;20441;-75
2023/06/01 08:32:35;;;;;;;9.05;4.85;;;22.90;96.00;;;;;;5064986;28;21960;-74
2023/06/01 08:35:01;;;;;;;8.13;4.90;;;22.80;95.40;;;;;;5065710;28;20029;-74
2023/06/01 08:37:27;;;;;;;8.65;4.55;;;22.90;96.20;;;;;;5066006;28;20090;-74
2023/06/01 08:39:52;;;;;;;7.93;5.38;;;22.40;95.50;;;;;;5067250;28;20132;-74
2023/06/01 08:42:44;;;;;;;8.57;5.10;;;22.10;95.90;;;;;;5066440;28;20070;-74
2023/06/01 08:45:12;;;;;;;6.93;4.72;;;22.30;96.20;;;;;;5063753;28;20051;-74
2023/06/01 08:47:38;;;;;;;7.30;4.70;;;22.50;96.20;;;;;;5065049;28;20028;-74
2023/06/01 08:50:05;;;;;;;11.25;5.22;;;22.50;96.10;;;;;;5064496;28;20182;-74
2023/06/01 08:52:34;;;;;;;7.55;5.05;;;22.60;96.30;;;;;;5063234;28;20072;-74
2023/06/01 08:55:01;;;;;;;8.80;4.95;;;22.50;96.10;;;;;;5062436;28;20025;-74
2023/06/01 08:57:29;;;;;;;8.43;5.30;;;22.60;96.00;;;;;;5067098;28;20055;-74
2023/06/01 08:59:55;;;;;;;7.95;4.97;;;22.70;96.20;;;;;;5067616;28;20929;-74
2023/06/01 09:02:22;;;;;;;7.38;5.05;;;23.00;95.70;;;;;;5064790;28;20474;-74
2023/06/01 09:04:48;;;;;;;8.93;5.45;;;23.00;96.70;;;;;;5066648;28;20024;-74
2023/06/01 09:07:14;;;;;;;7.47;5.25;;;23.10;95.30;;;;;;5063964;28;20119;-74
2023/06/01 09:09:40;;;;;;;7.75;4.43;;;22.70;94.80;;;;;;5064170;28;21551;-74
2023/06/01 09:12:23;;;;;;;7.28;4.68;;;23.50;95.30;;;;;;5062002;28;20032;-75
2023/06/01 09:14:50;;;;;;;6.47;4.43;;;23.70;94.70;;;;;;5062305;28;20032;-74
2023/06/01 09:17:22;;;;;;;7.88;4.25;;;24.00;95.60;;;;;;5065911;28;20355;-75
2023/06/01 09:19:49;;;;;;;10.57;4.40;;;23.90;94.30;;;;;;5062843;28;20356;-75
2023/06/01 09:22:15;;;;;;;9.52;4.68;;;23.50;94.20;;;;;;5064296;28;20060;-75
2023/06/01 09:24:54;;;;;;;6.88;4.60;;;23.80;95.20;;;;;;5065545;28;20095;-74
2023/06/01 09:27:19;;;;;;;9.05;5.43;;;24.10;94.80;;;;;;5063136;28;20040;-75
2023/06/01 09:29:53;;;;;;;9.02;5.03;;;24.60;95.00;;;;;;5065067;28;20027;-75
2023/06/01 09:32:19;;;;;;;;;;;24.60;94.70;;;;;;5060845;28;20486;-74
2023/06/01 09:34:48;;;;;;;7.60;4.72;;;24.30;94.20;;;;;;5063707;28;19919;-75
2023/06/01 09:37:14;;;;;;;10.88;5.00;;;24.40;93.60;;;;;;5063967;28;20093;-75
2023/06/01 09:39:40;;;;;;;8.57;4.47;;;24.60;94.70;;;;;;5063612;28;20049;-75
2023/06/01 09:42:06;;;;;;;7.28;4.65;;;24.60;94.10;;;;;;5062728;28;20500;-75
2023/06/01 09:44:42;;;;;;;7.47;4.45;;;24.90;93.70;;;;;;5063935;28;20094;-75
2023/06/01 09:47:12;;;;;;;7.18;4.32;;;24.90;93.50;;;;;;5063106;28;20103;-76
2023/06/01 09:49:40;;;;;;;9.80;6.13;;;24.90;93.10;;;;;;5060508;28;20032;-73
2023/06/01 09:52:06;;;;;;;8.88;4.50;;;24.80;93.70;;;;;;5063255;28;20491;-74
2023/06/01 09:54:34;;;;;;;7.40;4.22;;;25.10;92.70;;;;;;5064201;28;20062;-74
2023/06/01 09:57:01;;;;;;;7.03;4.85;;;24.90;92.70;;;;;;5062917;28;20048;-75
2023/06/01 09:59:31;;;;;;;9.93;4.78;;;24.60;91.80;;;;;;5057992;28;20074;-75
2023/06/01 10:01:58;;;;;;;6.78;4.35;;;24.90;93.20;;;;;;5067454;28;20032;-75
2023/06/01 10:04:28;;;;;;;7.82;4.72;;;25.00;93.60;;;;;;5067475;28;20580;-75
2023/06/01 10:06:56;;;;;;;6.95;4.85;;;24.90;92.50;;;;;;5068903;28;20058;-76
2023/06/01 10:09:24;;;;;;;11.20;4.57;;;24.80;91.90;;;;;;5066781;28;20036;-76
2023/06/01 10:11:53;;;;;;;7.10;4.40;;;24.50;92.20;;;;;;5063056;28;20052;-75
2023/06/01 10:14:20;;;;;;;8.95;4.53;;;24.60;92.50;;;;;;5064615;28;20024;-76
2023/06/01 10:16:49;;;;;;;8.05;4.88;;;24.80;92.70;;;;;;5063342;28;20518;-75
2023/06/01 10:19:15;;;;;;;7.82;4.47;;;24.80;92.30;;;;;;5061971;28;20044;-75
2023/06/01 10:21:44;;;;;;;7.65;4.88;;;24.60;92.60;;;;;;5067716;28;20063;-76
2023/06/01 10:24:10;;;;;;;6.95;4.38;;;24.50;92.00;;;;;;5063239;28;20028;-76
2023/06/01 10:26:43;;;;;;;11.63;5.65;;;24.40;93.10;;;;;;5061851;28;20023;-76
2023/06/01 10:29:09;;;;;;;;;;;24.80;93.30;;;;;;5066399;28;20927;-76
2023/06/01 10:31:38;;;;;;;10.27;4.78;;;25.40;93.70;;;;;;5066887;28;19920;-76
2023/06/01 10:34:05;;;;;;;8.15;4.70;;;25.70;94.50;;;;;;5065814;28;20451;-76
2023/06/01 10:36:53;;;;;;;9.10;4.45;;;25.30;92.60;;;;;;5062716;28;20067;-76
2023/06/01 10:39:23;;;;;;;8.52;5.03;;;25.40;92.80;;;;;;5063719;28;20501;-75
2023/06/01 10:41:49;;;;;;;7.93;4.30;;;25.60;92.20;;;;;;5065414;28;20367;-76
2023/06/01 10:44:47;;;;;;;5.65;4.20;;;25.80;91.80;;;;;;5066002;28;20062;-76
2023/06/01 10:47:13;;;;;;;7.15;4.32;;;26.20;94.10;;;;;;5058241;28;20443;-75
2023/06/01 10:49:51;;;;;;;9.02;4.63;;;26.50;92.20;;;;;;5064527;28;20045;-76
2023/06/01 10:52:29;;;;;;;7.90;4.75;;;26.70;92.50;;;;;;5065242;28;20039;-76
2023/06/01 10:55:16;;;;;;;9.73;4.65;;;26.60;92.20;;;;;;5066204;28;20028;-76
2023/06/01 10:57:46;;;;;;;7.50;4.82;;;26.70;93.30;;;;;;5066155;28;20445;-76
2023/06/01 11:00:14;;;;;;;7.90;4.18;;;26.70;92.20;;;;;;5064964;28;20462;-76
2023/06/01 11:02:44;;;;;;;13.60;4.28;;;26.90;92.00;;;;;;5064206;28;20453;-76
2023/06/01 11:05:36;;;;;;;10.35;5.00;;;26.70;90.70;;;;;;5066051;28;20052;-76
2023/06/01 11:08:02;;;;;;;10.35;4.13;;;26.80;92.30;;;;;;5068260;28;20033;-76
2023/06/01 11:10:52;;;;;;;7.75;4.07;;;26.90;91.40;;;;;;5066451;28;20059;-76
2023/06/01 11:13:29;;;;;;;9.98;4.55;;;27.30;92.40;;;;;;5041975;28;20025;-76
2023/06/01 11:16:07;;;;;;;8.75;4.40;;;26.90;92.00;;;;;;5045561;28;20112;-76
2023/06/01 11:19:00;;;;;;;6.85;4.55;;;27.00;92.00;;;;;;5048015;28;20565;-76
2023/06/01 11:21:40;;;;;;;5.97;4.03;;;27.00;91.40;;;;;;5045908;28;20025;-76
2023/06/01 11:24:12;;;;;;;8.20;4.93;;;26.90;91.20;;;;;;5046453;28;20348;-76
2023/06/01 11:26:40;;;;;;;8.55;4.75;;;27.00;92.10;;;;;;5045757;28;20052;-76
2023/06/01 11:29:12;;;;;;;7.53;4.40;;;26.90;90.90;;;;;;5046053;28;20041;-76
2023/06/01 11:31:49;;;;;;;8.32;4.95;;;27.30;90.70;;;;;;5047450;28;20132;-76
2023/06/01 11:34:18;;;;;;;9.10;4.95;;;27.10;89.70;;;;;;5043590;28;20062;-76
2023/06/01 11:36:49;;;;;;;7.85;4.40;;;27.50;90.70;;;;;;5044854;28;20040;-76
2023/06/01 11:39:23;;;;;;;8.90;4.25;;;28.00;90.00;;;;;;5053531;28;20513;-76
2023/06/01 11:41:50;;;;;;;11.65;3.83;;;28.20;88.20;;;;;;5047176;28;20086;-77
2023/06/01 11:44:16;;;;;;;6.15;3.92;;;28.40;90.90;;;;;;5043967;28;20199;-76
2023/06/01 11:46:52;;;;;;;7.47;4.32;;;28.30;90.20;;;;;;5053439;28;20115;-76
2023/06/01 11:49:18;;;;;;;6.55;3.85;;;28.20;91.20;;;;;;5045612;28;20372;-76
2023/06/01 11:51:44;;;;;;;6.10;3.97;;;28.10;90.30;;;;;;5046566;28;20032;-76
2023/06/01 11:54:10;;;;;;;6.55;3.80;;;28.10;90.00;;;;;;5052334;28;20467;-77
2023/06/01 11:56:39;;;;;;;7.78;4.88;;;28.00;90.70;;;;;;5045368;28;20106;-76
2023/06/01 11:59:12;;;;;;;10.02;4.53;;;28.00;90.50;;;;;;5049142;28;20020;-76
2023/06/01 12:01:44;;;;;;;;;;;28.30;90.40;;;;;;5047617;28;20438;-76
2023/06/01 12:04:25;;;;;;;8.05;5.00;;;28.50;90.00;;;;;;5045389;28;19917;-77
2023/06/01 12:06:51;;;;;;;8.80;4.13;;;28.80;90.70;;;;;;5046413;28;20025;-77
2023/06/01 12:09:17;;;;;;;8.00;4.43;;;28.40;89.90;;;;;;5048174;28;20040;-76
2023/06/01 12:11:44;;;;;;;8.48;5.47;;;28.70;90.90;;;;;;5045051;28;20032;-76
2023/06/01 12:14:14;;;;;;;8.77;4.75;;;28.30;90.30;;;;;;5046026;28;20037;-77
2023/06/01 12:17:04;;;;;;;6.43;4.30;;;27.50;90.90;;;;;;5046248;28;20080;-76
2023/06/01 12:19:31;;;;;;;8.73;4.05;;;27.30;90.50;;;;;;5048904;28;20475;-76
2023/06/01 12:21:58;;;;;;;8.73;4.90;;;27.40;91.50;;;;;;5046935;28;20044;-76
2023/06/01 12:24:34;;;;;;;8.90;4.53;;;27.80;91.30;;;;;;5052147;28;20028;-76
2023/06/01 12:27:02;;;;;;;7.55;4.32;;;27.90;90.90;;;;;;5046109;28;20039;-76
2023/06/01 12:29:55;;;;;;;6.32;3.83;;;28.60;90.50;;;;;;5044809;28;20068;-76
2023/06/01 12:32:22;;;;;;;8.65;4.82;;;28.70;90.70;;;;;;5043014;28;20232;-76
2023/06/01 12:35:06;;;;;;;6.32;4.18;;;28.50;90.60;;;;;;5045260;28;20086;-76
2023/06/01 12:37:32;;;;;;;6.97;4.40;;;28.30;90.50;;;;;;5047359;28;20109;-76
2023/06/01 12:39:59;;;;;;;7.00;3.78;;;28.40;90.20;;;;;;5045427;28;20029;-76
2023/06/01 12:42:40;;;;;;;8.23;4.97;;;29.00;90.30;;;;;;5047847;28;20119;-76
2023/06/01 12:45:07;;;;;;;11.40;4.50;;;28.80;89.30;;;;;;5043229;28;20398;-76
2023/06/01 12:47:40;;;;;;;10.98;4.07;;;28.90;90.20;;;;;;5046571;28;20037;-76
2023/06/01 12:50:08;;;;;;;6.95;4.55;;;28.80;88.90;;;;;;5046624;28;20025;-76
2023/06/01 12:52:34;;;;;;;7.47;4.25;;;28.10;90.50;;;;;;5058884;28;20375;-76